Time;durP1;ratioP1;P1;durP2;ratioP2;P2;SDS_P1;SDS_P2;PMS_P1;PMS_P2;Temp;Humidity;BMP_temperature;BMP_pressure;BME280_temperature;BME280_humidity;BME280_pressure;Samples;Min_cycle;Max_cycle;Signal;HPM_P1;HPM_P2
2023/05/17 00:01:46;;;;;;;12.77;3.30;;;;;;;7.36;100.00;101960.69;5027950;28;20151;-74
2023/05/17 00:04:12;;;;;;;9.02;3.50;;;;;;;7.35;100.00;101965.47;5027162;28;20168;-74
2023/05/17 00:06:39;;;;;;;7.13;2.88;;;;;;;7.31;100.00;101955.47;5029542;28;20053;-74
2023/05/17 00:09:06;;;;;;;8.70;3.50;;;;;;;7.33;100.00;101967.00;5023658;28;20140;-74
2023/05/17 00:11:33;;;;;;;9.13;3.50;;;;;;;7.28;100.00;101962.56;5025318;28;20053;-75
2023/05/17 00:13:59;;;;;;;9.43;3.63;;;;;;;7.25;100.00;101965.22;5022826;28;20895;-75
2023/05/17 00:16:26;;;;;;;15.65;3.88;;;;;;;7.19;100.00;101963.91;5020876;28;20076;-75
2023/05/17 00:18:53;;;;;;;10.68;3.40;;;;;;;7.18;100.00;101971.44;5023635;28;20508;-74
2023/05/17 00:21:20;;;;;;;8.52;3.55;;;;;;;7.16;100.00;101961.91;5028432;28;20068;-73
2023/05/17 00:23:46;;;;;;;6.63;3.10;;;;;;;7.10;100.00;101964.13;5016686;28;20120;-74
2023/05/17 00:26:13;;;;;;;7.93;3.38;;;;;;;7.05;100.00;101969.94;5026833;28;20144;-73
2023/05/17 00:28:39;;;;;;;11.63;3.83;;;;;;;7.06;100.00;101966.03;5024844;28;20099;-73
2023/05/17 00:31:06;;;;;;;9.70;3.50;;;;;;;7.02;100.00;101969.84;5021373;28;20467;-74
2023/05/17 00:33:32;;;;;;;11.10;3.35;;;;;;;7.03;100.00;101961.19;5020934;28;20053;-74
2023/05/17 00:35:59;;;;;;;10.95;3.28;;;;;;;6.99;100.00;101968.63;5025578;28;20099;-75
2023/05/17 00:38:25;;;;;;;8.50;3.47;;;;;;;6.96;100.00;101963.81;5027341;28;20053;-74
2023/05/17 00:40:52;;;;;;;12.27;4.07;;;;;;;6.94;100.00;101966.16;5026602;28;20072;-74
2023/05/17 00:43:19;;;;;;;7.28;3.08;;;;;;;6.93;100.00;101972.84;5027782;28;20091;-74
2023/05/17 00:45:48;;;;;;;9.50;3.03;;;;;;;6.92;100.00;101968.47;5027980;28;20045;-74
2023/05/17 00:48:14;;;;;;;11.25;3.13;;;;;;;6.90;100.00;101961.72;5022392;28;21002;-74
2023/05/17 00:50:42;;;;;;;11.95;3.75;;;;;;;6.91;100.00;101957.78;5013085;28;20116;-74
2023/05/17 00:53:08;;;;;;;13.77;4.13;;;;;;;6.88;100.00;101962.06;5011692;28;20050;-75
2023/05/17 00:55:35;;;;;;;7.03;3.40;;;;;;;6.85;100.00;101967.53;5019008;28;20148;-75
2023/05/17 00:58:02;;;;;;;12.95;3.90;;;;;;;6.83;100.00;101954.06;5026470;28;20041;-74
2023/05/17 01:00:35;;;;;;;9.77;3.30;;;;;;;6.88;100.00;101961.25;5031111;28;20047;-74
2023/05/17 01:03:02;;;;;;;12.73;3.55;;;;;;;6.93;100.00;101959.00;5020722;28;20059;-74
2023/05/17 01:05:30;;;;;;;10.02;3.42;;;;;;;6.95;100.00;101964.19;5023047;28;20046;-74
2023/05/17 01:07:56;;;;;;;11.68;3.40;;;;;;;6.89;100.00;101962.88;5026595;28;20534;-75
2023/05/17 01:10:33;;;;;;;14.25;3.95;;;;;;;6.83;100.00;101959.59;5021509;28;20107;-72
2023/05/17 01:13:41;;;;;;;9.68;4.38;;;;;;;6.77;100.00;101966.59;5024306;28;20131;-74
2023/05/17 01:16:35;;;;;;;11.63;3.83;;;;;;;6.71;100.00;101956.97;5022685;28;20053;-74
2023/05/17 01:19:38;;;;;;;10.18;3.65;;;;;;;6.67;100.00;101952.53;5023810;28;20124;-74
2023/05/17 01:22:44;;;;;;;8.90;4.97;;;;;;;6.72;100.00;101957.78;5011840;28;20057;-74
2023/05/17 01:25:45;;;;;;;15.75;3.80;;;;;;;6.69;100.00;101956.50;5020903;28;20045;-75
2023/05/17 01:28:13;;;;;;;9.05;3.80;;;;;;;6.61;100.00;101960.28;5022414;28;20124;-73
2023/05/17 01:30:42;;;;;;;10.95;3.88;;;;;;;6.56;100.00;101965.31;5024131;28;20063;-75
2023/05/17 01:33:10;;;;;;;8.77;3.53;;;;;;;6.44;100.00;101962.66;5026257;28;20076;-74
2023/05/17 01:35:36;;;;;;;14.10;4.38;;;;;;;6.37;100.00;101968.81;5026628;28;20052;-74
2023/05/17 01:38:03;;;;;;;10.88;4.20;;;;;;;6.37;100.00;101973.53;5027417;28;20128;-73
2023/05/17 01:40:34;;;;;;;11.38;3.83;;;;;;;6.41;100.00;101969.69;5023221;28;20053;-74
2023/05/17 01:43:14;;;;;;;13.80;3.85;;;;;;;6.39;100.00;101971.22;5024942;28;20157;-73
2023/05/17 01:45:48;;;;;;;13.77;4.05;;;;;;;6.40;100.00;101978.34;5023520;28;20076;-74
2023/05/17 01:48:18;;;;;;;14.27;4.40;;;;;;;6.40;100.00;101970.88;5026355;28;20076;-74
2023/05/17 01:50:49;;;;;;;15.50;4.57;;;;;;;6.46;100.00;101974.97;5021015;28;20128;-74
2023/05/17 01:53:28;;;;;;;11.43;4.03;;;;;;;6.43;100.00;101966.56;5021705;28;20060;-74
2023/05/17 01:56:00;;;;;;;16.10;4.28;;;;;;;6.37;100.00;101973.53;5025621;28;20137;-74
2023/05/17 01:58:29;;;;;;;9.23;4.10;;;;;;;6.33;100.00;101987.28;5025423;28;20053;-74
2023/05/17 02:00:59;;;;;;;14.57;4.68;;;;;;;6.28;100.00;101990.28;5012693;28;20050;-73
2023/05/17 02:03:27;;;;;;;16.05;4.35;;;;;;;6.24;100.00;101977.56;5018944;28;20884;-74
2023/05/17 02:05:54;;;;;;;12.68;4.47;;;;;;;6.27;100.00;101990.66;5025708;28;20049;-74
2023/05/17 02:08:21;;;;;;;13.40;4.85;;;;;;;6.30;100.00;101990.75;5026106;28;20099;-74
2023/05/17 02:10:47;;;;;;;13.30;4.82;;;;;;;6.31;100.00;101986.81;5021870;28;20046;-74
2023/05/17 02:13:14;;;;;;;12.63;4.53;;;;;;;6.27;100.00;101983.19;5022184;28;20144;-74
2023/05/17 02:15:40;;;;;;;15.57;4.47;;;;;;;6.26;100.00;101984.34;5024488;28;20055;-74
2023/05/17 02:18:07;;;;;;;13.50;4.68;;;;;;;6.28;100.00;101984.78;5017628;28;20441;-74
2023/05/17 02:20:33;;;;;;;18.13;5.68;;;;;;;6.26;100.00;101989.88;5019230;28;20408;-74
2023/05/17 02:23:00;;;;;;;16.60;5.20;;;;;;;6.25;100.00;101992.97;5019305;28;20069;-74
2023/05/17 02:25:26;;;;;;;18.90;5.47;;;;;;;6.24;100.00;101994.94;5026092;28;20061;-74
2023/05/17 02:27:54;;;;;;;17.70;5.65;;;;;;;6.26;100.00;101995.38;5027229;28;20046;-74
2023/05/17 02:30:21;;;;;;;13.80;4.93;;;;;;;6.26;100.00;101994.59;5021634;28;20447;-74
2023/05/17 02:32:47;;;;;;;14.80;5.40;;;;;;;6.21;100.00;101995.66;5017875;28;20053;-73
2023/05/17 02:35:14;;;;;;;13.20;4.72;;;;;;;6.16;100.00;102001.44;5026054;28;20136;-74
2023/05/17 02:37:41;;;;;;;17.63;5.88;;;;;;;6.13;100.00;101990.31;5024891;28;20133;-74
2023/05/17 02:40:08;;;;;;;13.50;4.93;;;;;;;6.10;100.00;102000.13;5022212;28;20062;-73
2023/05/17 02:42:35;;;;;;;20.42;6.07;;;;;;;6.07;100.00;102008.28;5022452;28;20099;-74
2023/05/17 02:45:02;;;;;;;16.85;5.82;;;;;;;6.11;100.00;102007.22;5025645;28;20668;-74
2023/05/17 02:47:29;;;;;;;21.30;7.20;;;;;;;6.17;100.00;102007.75;5027210;28;20068;-74
2023/05/17 02:49:56;;;;;;;17.73;5.97;;;;;;;6.19;100.00;102009.03;5024799;28;20170;-73
2023/05/17 02:52:25;;;;;;;15.15;5.53;;;;;;;6.23;100.00;102015.44;5021171;28;20049;-74
2023/05/17 02:54:51;;;;;;;19.55;5.68;;;;;;;6.31;100.00;102016.38;5023912;28;20475;-72
2023/05/17 02:57:18;;;;;;;19.42;6.50;;;;;;;6.40;100.00;102019.78;5026607;28;20088;-74
2023/05/17 02:59:44;;;;;;;14.45;5.53;;;;;;;6.41;100.00;102019.41;5021932;28;20049;-74
2023/05/17 03:02:11;;;;;;;32.78;7.53;;;;;;;6.43;100.00;102019.88;5025180;28;20518;-74
2023/05/17 03:04:38;;;;;;;14.85;5.72;;;;;;;6.48;100.00;102014.06;5028187;28;20083;-74
2023/05/17 03:07:05;;;;;;;16.95;6.47;;;;;;;6.62;100.00;102019.13;5028095;28;20053;-74
2023/05/17 03:09:33;;;;;;;22.52;6.45;;;;;;;6.66;100.00;102025.53;5021547;28;20157;-74
2023/05/17 03:11:59;;;;;;;21.67;5.95;;;;;;;6.63;100.00;102034.56;5027631;28;20050;-74
2023/05/17 03:14:26;;;;;;;20.17;6.30;;;;;;;6.69;100.00;102028.38;5026990;28;20054;-74
2023/05/17 03:16:52;;;;;;;19.25;5.50;;;;;;;6.72;100.00;102026.88;5029293;28;20081;-73
2023/05/17 03:19:19;;;;;;;20.55;5.57;;;;;;;6.69;100.00;102035.88;5028519;28;20940;-75
2023/05/17 03:21:46;;;;;;;18.25;6.00;;;;;;;6.67;100.00;102038.19;5015562;28;20065;-74
2023/05/17 03:24:12;;;;;;;20.83;6.43;;;;;;;6.73;100.00;102031.22;5022958;28;20157;-75
2023/05/17 03:26:39;;;;;;;22.70;5.97;;;;;;;6.76;100.00;102028.53;5019937;28;20084;-74
2023/05/17 03:29:05;;;;;;;21.67;6.38;;;;;;;6.78;100.00;102037.28;5025760;28;20049;-74
2023/05/17 03:31:32;;;;;;;20.42;8.07;;;;;;;6.87;100.00;102039.84;5025078;28;20069;-71
2023/05/17 03:33:58;;;;;;;19.80;6.13;;;;;;;6.96;100.00;102040.47;5025402;28;20136;-72
2023/05/17 03:36:25;;;;;;;21.63;5.70;;;;;;;7.07;100.00;102047.06;5029565;28;20132;-71
2023/05/17 03:38:51;;;;;;;20.08;6.43;;;;;;;7.17;100.00;102054.78;5027497;28;20123;-73
2023/05/17 03:41:18;;;;;;;29.35;7.00;;;;;;;7.26;100.00;102056.16;5020775;28;20049;-75
2023/05/17 03:43:45;;;;;;;24.73;6.55;;;;;;;7.25;100.00;102057.34;5027233;28;20136;-74
2023/05/17 03:46:11;;;;;;;26.48;7.38;;;;;;;7.25;100.00;102062.88;5028804;28;20801;-73
2023/05/17 03:48:38;;;;;;;26.05;7.75;;;;;;;7.29;100.00;102062.94;5027033;28;20107;-75
2023/05/17 03:51:05;;;;;;;31.25;6.75;;;;;;;7.29;100.00;102060.16;5021419;28;20467;-74
2023/05/17 03:53:31;;;;;;;21.83;7.00;;;;;;;7.28;100.00;102064.09;5021188;28;20049;-74
2023/05/17 03:55:58;;;;;;;24.05;7.38;;;;;;;7.25;100.00;102056.53;5029779;28;20049;-74
2023/05/17 03:58:24;;;;;;;23.63;7.25;;;;;;;7.26;100.00;102069.22;5023934;28;20128;-75
2023/05/17 04:00:51;;;;;;;23.58;6.20;;;;;;;7.22;100.00;102073.84;5027529;28;20053;-75
2023/05/17 04:03:17;;;;;;;21.33;6.97;;;;;;;7.27;100.00;102071.59;5023963;28;20080;-74
2023/05/17 04:05:45;;;;;;;21.70;6.75;;;;;;;7.30;100.00;102076.41;5027831;28;20049;-73
2023/05/17 04:08:15;;;;;;;25.52;6.88;;;;;;;7.34;100.00;102079.25;5020651;28;20073;-75
2023/05/17 04:10:42;;;;;;;23.88;7.05;;;;;;;7.36;100.00;102087.97;5019214;28;20435;-74
2023/05/17 04:13:08;;;;;;;27.88;7.03;;;;;;;7.41;100.00;102082.97;5017885;28;20085;-74
2023/05/17 04:15:35;;;;;;;25.50;7.65;;;;;;;7.41;100.00;102088.50;5028948;28;20056;-74
2023/05/17 04:18:02;;;;;;;19.70;6.18;;;;;;;7.35;100.00;102094.69;5021217;28;20041;-74
2023/05/17 04:20:28;;;;;;;22.05;6.05;;;;;;;7.41;100.00;102101.53;5014851;28;20546;-74
2023/05/17 04:22:55;;;;;;;22.08;9.38;;;;;;;7.41;100.00;102096.81;5017932;28;20046;-74
2023/05/17 04:25:23;;;;;;;21.60;6.43;;;;;;;7.42;100.00;102100.38;5028001;28;20140;-75
2023/05/17 04:27:49;;;;;;;26.48;7.43;;;;;;;7.48;100.00;102096.97;5019245;28;20148;-74
2023/05/17 04:30:16;;;;;;;22.33;6.82;;;;;;;7.50;100.00;102097.38;5027208;28;20092;-74
2023/05/17 04:32:43;;;;;;;22.65;7.75;;;;;;;7.53;100.00;102099.44;5025492;28;20060;-74
2023/05/17 04:35:09;;;;;;;23.60;7.60;;;;;;;7.54;100.00;102098.25;5026585;28;20132;-75
2023/05/17 04:37:38;;;;;;;19.17;6.93;;;;;;;7.56;100.00;102102.66;5029034;28;20046;-75
2023/05/17 04:40:06;;;;;;;20.52;6.80;;;;;;;7.51;100.00;102100.97;5024514;28;20378;-75
2023/05/17 04:42:33;;;;;;;32.72;8.38;;;;;;;7.47;100.00;102111.94;5017564;28;20599;-73
2023/05/17 04:45:00;;;;;;;22.25;6.82;;;;;;;7.44;100.00;102111.88;5025352;28;20045;-74
2023/05/17 04:47:27;;;;;;;19.42;6.72;;;;;;;7.43;100.00;102122.13;5028697;28;20057;-74
2023/05/17 04:49:55;;;;;;;23.73;7.50;;;;;;;7.41;100.00;102116.19;5021364;28;20074;-74
2023/05/17 04:52:21;;;;;;;21.33;6.63;;;;;;;7.38;100.00;102116.91;5023434;28;20061;-75
2023/05/17 04:54:49;;;;;;;24.98;8.02;;;;;;;7.39;100.00;102118.50;5024941;28;20049;-74
2023/05/17 04:57:15;;;;;;;25.70;8.15;;;;;;;7.42;100.00;102125.28;5019341;28;20524;-75
2023/05/17 04:59:42;;;;;;;21.48;7.68;;;;;;;7.42;100.00;102130.81;5026298;28;20054;-73
2023/05/17 05:02:09;;;;;;;24.00;7.57;;;;;;;7.49;100.00;102136.50;5021900;28;20140;-73
2023/05/17 05:04:35;;;;;;;23.08;7.30;;;;;;;7.45;100.00;102141.16;5026467;28;20057;-73
2023/05/17 05:07:02;;;;;;;25.27;8.07;;;;;;;7.51;100.00;102139.72;5025296;28;20077;-73
2023/05/17 05:09:29;;;;;;;18.73;8.00;;;;;;;7.50;100.00;102143.66;5021424;28;20427;-74
2023/05/17 05:11:55;;;;;;;25.40;7.80;;;;;;;7.59;100.00;102140.66;5022525;28;20053;-73
2023/05/17 05:14:22;;;;;;;18.40;7.30;;;;;;;7.64;100.00;102154.22;5026105;28;20084;-74
2023/05/17 05:16:48;;;;;;;25.50;8.27;;;;;;;7.68;100.00;102152.31;5027603;28;20085;-73
2023/05/17 05:19:15;;;;;;;27.08;7.88;;;;;;;7.68;100.00;102158.66;5027747;28;20045;-73
2023/05/17 05:21:45;;;;;;;22.27;7.18;;;;;;;7.73;100.00;102157.59;5026300;28;20045;-72
2023/05/17 05:24:11;;;;;;;22.60;7.55;;;;;;;7.77;100.00;102162.03;5024817;28;20076;-75
2023/05/17 05:26:38;;;;;;;18.98;7.03;;;;;;;7.81;100.00;102162.09;5026098;28;20124;-75
2023/05/17 05:29:04;;;;;;;25.98;7.57;;;;;;;7.87;100.00;102169.72;5017898;28;20085;-74
2023/05/17 05:31:31;;;;;;;27.80;9.00;;;;;;;7.92;100.00;102177.75;5022994;28;20511;-74
2023/05/17 05:33:57;;;;;;;24.45;6.82;;;;;;;7.96;100.00;102175.03;5025304;28;20412;-74
2023/05/17 05:36:24;;;;;;;27.52;8.02;;;;;;;8.03;100.00;102192.63;5017349;28;20049;-74
2023/05/17 05:38:53;;;;;;;23.05;7.20;;;;;;;8.09;100.00;102182.84;5022949;28;20056;-75
2023/05/17 05:41:19;;;;;;;27.77;7.45;;;;;;;8.16;100.00;102185.75;5018081;28;20088;-75
2023/05/17 05:43:46;;;;;;;28.88;7.57;;;;;;;8.25;100.00;102180.00;5025886;28;20459;-74
2023/05/17 05:46:12;;;;;;;26.30;6.15;;;;;;;8.32;100.00;102188.44;5026671;28;20859;-75
2023/05/17 05:48:42;;;;;;;21.70;6.50;;;;;;;8.40;100.00;102179.09;5027173;28;20096;-73
2023/05/17 05:51:09;;;;;;;25.75;6.55;;;;;;;8.46;100.00;102185.94;5023452;28;20132;-73
2023/05/17 05:53:37;;;;;;;16.98;5.03;;;;;;;8.45;100.00;102184.34;5016706;28;20050;-73
2023/05/17 05:56:04;;;;;;;20.15;6.75;;;;;;;8.54;100.00;102193.22;5024463;28;20085;-72
2023/05/17 05:58:30;;;;;;;24.25;6.25;;;;;;;8.63;100.00;102202.13;5024379;28;20124;-73
2023/05/17 06:00:58;;;;;;;29.10;5.70;;;;;;;8.65;100.00;102192.25;5024862;28;20458;-73
2023/05/17 06:03:25;;;;;;;20.75;5.05;;;;;;;8.75;100.00;102201.94;5022751;28;20053;-72
2023/05/17 06:05:52;;;;;;;28.60;5.35;;;;;;;8.77;100.00;102200.41;5027326;28;20056;-74
2023/05/17 06:08:18;;;;;;;17.80;4.75;;;;;;;8.86;100.00;102194.63;5026247;28;20163;-74
2023/05/17 06:10:45;;;;;;;28.33;5.75;;;;;;;8.96;100.00;102202.31;5021873;28;20053;-72
2023/05/17 06:13:12;;;;;;;19.05;5.10;;;;;;;9.01;100.00;102193.66;5024389;28;20089;-72
2023/05/17 06:15:39;;;;;;;16.25;3.40;;;;;;;9.07;100.00;102198.53;5026771;28;20049;-73
2023/05/17 06:18:06;;;;;;;14.57;2.80;;;;;;;9.15;100.00;102202.25;5024959;28;20103;-72
2023/05/17 06:20:32;;;;;;;13.45;3.72;;;;;;;9.19;100.00;102203.88;5018499;28;20057;-73
2023/05/17 06:22:59;;;;;;;20.88;3.83;;;;;;;9.27;100.00;102194.50;5024958;28;20552;-73
2023/05/17 06:25:25;;;;;;;20.85;3.17;;;;;;;9.38;100.00;102195.47;5017754;28;20057;-72
2023/05/17 06:27:52;;;;;;;21.48;4.15;;;;;;;9.55;100.00;102208.81;5028591;28;20061;-73
2023/05/17 06:30:19;;;;;;;25.10;4.13;;;;;;;9.73;100.00;102211.84;5018324;28;20583;-74
2023/05/17 06:32:45;;;;;;;11.20;2.88;;;;;;;9.79;100.00;102218.63;5024363;28;20060;-73
2023/05/17 06:35:12;;;;;;;18.85;3.22;;;;;;;9.96;100.00;102215.28;5024613;28;20059;-74
2023/05/17 06:37:38;;;;;;;13.70;3.00;;;;;;;10.01;100.00;102212.22;5026266;28;20049;-73
2023/05/17 06:40:07;;;;;;;14.68;3.78;;;;;;;10.11;100.00;102206.00;5019633;28;20053;-73
2023/05/17 06:42:42;;;;;;;23.23;4.13;;;;;;;10.28;100.00;102210.97;5023827;28;20542;-73
2023/05/17 06:45:09;;;;;;;21.33;4.07;;;;;;;10.32;100.00;102211.81;5023508;28;20057;-72
2023/05/17 06:47:36;;;;;;;14.85;3.75;;;;;;;10.41;100.00;102206.75;5026092;28;20135;-74
2023/05/17 06:50:03;;;;;;;15.60;3.63;;;;;;;10.40;100.00;102212.69;5022238;28;20053;-73
2023/05/17 06:52:29;;;;;;;17.20;3.35;;;;;;;10.56;100.00;102210.50;5017003;28;20460;-72
2023/05/17 06:54:56;;;;;;;23.60;4.38;;;;;;;10.63;100.00;102216.13;5023722;28;20049;-73
2023/05/17 06:57:23;;;;;;;16.55;3.10;;;;;;;10.69;100.00;102214.56;5025665;28;20045;-72
2023/05/17 06:59:51;;;;;;;8.38;2.20;;;;;;;10.69;100.00;102217.34;5018646;28;20045;-74
2023/05/17 07:02:18;;;;;;;16.08;3.50;;;;;;;10.77;100.00;102217.03;5024001;28;20049;-73
2023/05/17 07:04:44;;;;;;;13.00;2.55;;;;;;;10.89;100.00;102229.88;5025907;28;20061;-74
2023/05/17 07:07:11;;;;;;;17.45;3.45;;;;;;;10.98;100.00;102225.59;5026540;28;20080;-74
2023/05/17 07:09:38;;;;;;;18.42;3.05;;;;;;;11.06;100.00;102227.25;5026191;28;20053;-73
2023/05/17 07:12:05;;;;;;;22.55;5.10;;;;;;;11.09;100.00;102220.13;5024123;28;20080;-73
2023/05/17 07:14:32;;;;;;;18.40;3.08;;;;;;;11.11;100.00;102226.09;5021184;28;20078;-73
2023/05/17 07:16:58;;;;;;;16.85;3.35;;;;;;;11.28;100.00;102234.63;5022236;28;20045;-74
2023/05/17 07:19:25;;;;;;;19.65;2.88;;;;;;;11.39;100.00;102234.72;5025005;28;20060;-73
2023/05/17 07:21:52;;;;;;;18.17;3.10;;;;;;;11.52;100.00;102238.78;5016542;28;20073;-72
2023/05/17 07:24:18;;;;;;;18.70;2.80;;;;;;;11.59;100.00;102242.44;5024161;28;20461;-73
2023/05/17 07:26:45;;;;;;;19.20;3.03;;;;;;;11.51;100.00;102246.34;5022557;28;20470;-74
2023/05/17 07:29:11;;;;;;;15.27;2.30;;;;;;;11.45;100.00;102261.03;5019633;28;20516;-71
2023/05/17 07:31:38;;;;;;;10.20;1.92;;;;;;;11.32;100.00;102249.38;5022908;28;20155;-72
2023/05/17 07:34:05;;;;;;;20.35;2.72;;;;;;;11.28;100.00;102248.53;5022891;28;20107;-72
2023/05/17 07:36:31;;;;;;;18.58;2.67;;;;;;;11.21;100.00;102247.66;5023331;28;20049;-72
2023/05/17 07:38:58;;;;;;;15.23;2.85;;;;;;;11.14;100.00;102248.38;5023260;28;20507;-72
2023/05/17 07:41:25;;;;;;;10.50;1.98;;;;;;;11.17;100.00;102246.84;5024678;28;20069;-72
2023/05/17 07:43:52;;;;;;;20.25;2.92;;;;;;;11.26;100.00;102248.13;5017513;28;20046;-73
2023/05/17 07:46:19;;;;;;;15.10;2.35;;;;;;;11.32;100.00;102251.38;5022262;28;20053;-73
2023/05/17 07:48:45;;;;;;;17.48;2.40;;;;;;;11.35;100.00;102253.38;5028914;28;20045;-73
2023/05/17 07:51:12;;;;;;;14.13;2.42;;;;;;;11.28;100.00;102259.69;5024048;28;20508;-73
2023/05/17 07:53:39;;;;;;;9.00;2.05;;;;;;;11.18;100.00;102257.56;5027984;28;20049;-73
2023/05/17 07:56:06;;;;;;;11.20;2.45;;;;;;;11.14;100.00;102256.75;5027756;28;20508;-73
2023/05/17 07:58:32;;;;;;;10.95;2.00;;;;;;;11.18;100.00;102256.78;5021929;28;20077;-74
2023/05/17 08:00:59;;;;;;;10.23;2.08;;;;;;;11.16;100.00;102262.75;5020525;28;20077;-75
2023/05/17 08:03:27;;;;;;;6.70;1.88;;;;;;;11.26;100.00;102264.84;5028455;28;20132;-74
2023/05/17 08:05:53;;;;;;;11.73;2.55;;;;;;;11.27;100.00;102260.88;5024001;28;20054;-74
2023/05/17 08:08:20;;;;;;;16.88;2.20;;;;;;;11.38;100.00;102258.97;5025344;28;20069;-74
2023/05/17 08:10:47;;;;;;;12.50;2.55;;;;;;;11.49;100.00;102262.66;5025558;28;20122;-73
2023/05/17 08:13:13;;;;;;;10.68;1.90;;;;;;;11.65;100.00;102274.28;5027307;28;20119;-74
2023/05/17 08:15:40;;;;;;;13.88;2.63;;;;;;;11.85;100.00;102269.25;5025759;28;20518;-74
2023/05/17 08:18:07;;;;;;;15.15;2.28;;;;;;;11.93;100.00;102274.47;5025219;28;20107;-75
2023/05/17 08:20:33;;;;;;;3.30;1.48;;;;;;;11.96;100.00;102268.09;5023742;28;20535;-74
2023/05/17 08:23:00;;;;;;;15.07;3.03;;;;;;;12.20;100.00;102273.03;5025783;28;20187;-75
2023/05/17 08:25:26;;;;;;;13.15;3.58;;;;;;;12.16;100.00;102274.19;5011316;28;20065;-74
2023/05/17 08:27:55;;;;;;;14.88;2.25;;;;;;;12.28;100.00;102276.63;5027999;28;20045;-74
2023/05/17 08:30:22;;;;;;;6.95;1.33;;;;;;;12.20;100.00;102272.22;5029206;28;20054;-74
2023/05/17 08:32:55;;;;;;;13.77;2.78;;;;;;;12.31;100.00;102273.06;5021511;28;20046;-74
2023/05/17 08:35:22;;;;;;;6.65;1.33;;;;;;;12.26;100.00;102282.59;5017054;28;20079;-74
2023/05/17 08:37:53;;;;;;;13.48;2.70;;;;;;;12.29;100.00;102261.50;5019725;28;20083;-73
2023/05/17 08:40:20;;;;;;;11.88;2.67;;;;;;;12.40;100.00;102281.91;5023781;28;20522;-73
2023/05/17 08:42:51;;;;;;;12.77;2.70;;;;;;;12.35;100.00;102277.47;5025709;28;20099;-73
2023/05/17 08:45:18;;;;;;;13.23;3.10;;;;;;;12.34;100.00;102277.84;5024080;28;20428;-74
2023/05/17 08:47:45;;;;;;;16.55;5.05;;;;;;;12.61;100.00;102287.53;5025543;28;20151;-73
2023/05/17 08:50:13;;;;;;;10.15;2.90;;;;;;;12.89;100.00;102282.03;5018641;28;20061;-75
2023/05/17 08:52:43;;;;;;;17.92;3.30;;;;;;;12.92;100.00;102286.00;5016960;28;20045;-74
2023/05/17 08:55:10;;;;;;;7.88;2.63;;;;;;;12.79;100.00;102290.41;5020002;28;20119;-75
2023/05/17 08:57:39;;;;;;;12.23;3.13;;;;;;;12.75;100.00;102287.59;5013373;28;20582;-75
2023/05/17 09:00:12;;;;;;;10.02;1.92;;;;;;;12.57;100.00;102290.31;5017077;28;20050;-74
2023/05/17 09:02:40;;;;;;;10.40;2.40;;;;;;;12.36;100.00;102295.03;5021527;28;20058;-75
2023/05/17 09:05:09;;;;;;;21.90;3.17;;;;;;;12.41;100.00;102283.50;5026517;28;20416;-74
2023/05/17 09:07:36;;;;;;;16.80;2.60;;;;;;;12.49;100.00;102285.09;5026421;28;20494;-74
2023/05/17 09:10:04;;;;;;;15.90;3.45;;;;;;;12.67;100.00;102285.16;5026515;28;20053;-75
2023/05/17 09:12:35;;;;;;;9.38;1.80;;;;;;;12.91;100.00;102290.00;5020040;28;20048;-75
2023/05/17 09:15:19;;;;;;;8.95;2.33;;;;;;;13.13;100.00;102289.63;5019644;28;20053;-76
2023/05/17 09:17:53;;;;;;;9.15;2.05;;;;;;;13.23;100.00;102288.84;5016475;28;20049;-75
2023/05/17 09:20:23;;;;;;;7.07;1.45;;;;;;;13.18;100.00;102289.25;5023750;28;20056;-74
2023/05/17 09:22:51;;;;;;;16.42;4.20;;;;;;;13.03;98.69;102295.22;5022105;28;20060;-74
2023/05/17 09:25:19;;;;;;;9.93;2.67;;;;;;;13.02;97.08;102282.44;5027145;28;20045;-78
2023/05/17 09:27:45;;;;;;;8.95;2.28;;;;;;;13.05;95.65;102287.25;5018504;28;20041;-73
2023/05/17 09:30:12;;;;;;;11.77;3.08;;;;;;;13.34;100.00;102288.88;5018645;28;20034;-76
2023/05/17 09:32:45;;;;;;;12.70;3.25;;;;;;;13.41;96.76;102292.47;5016714;28;20096;-73
2023/05/17 09:35:12;;;;;;;12.20;3.42;;;;;;;13.59;98.70;102292.47;5017146;28;20057;-74
2023/05/17 09:37:42;;;;;;;10.85;2.60;;;;;;;13.58;96.75;102291.69;5014389;28;20054;-72
2023/05/17 09:40:09;;;;;;;7.40;1.95;;;;;;;13.64;91.30;102292.09;5014698;28;20073;-73
2023/05/17 09:42:37;;;;;;;11.00;2.67;;;;;;;13.75;91.88;102293.66;5017189;28;20048;-75
2023/05/17 09:45:04;;;;;;;8.50;2.42;;;;;;;14.03;99.14;102295.59;5018496;28;20049;-74
2023/05/17 09:47:34;;;;;;;11.45;2.70;;;;;;;14.26;98.23;102287.53;5016092;28;20053;-76
2023/05/17 09:50:02;;;;;;;3.63;1.45;;;;;;;14.23;91.78;102294.75;5015172;28;20045;-75
2023/05/17 09:52:33;;;;;;;14.77;2.75;;;;;;;14.30;90.98;102293.91;5012785;28;20099;-75
2023/05/17 09:55:00;;;;;;;14.18;2.42;;;;;;;14.16;87.57;102300.34;5025769;28;20045;-74
2023/05/17 09:57:35;;;;;;;10.45;2.65;;;;;;;14.20;91.15;102300.34;5023555;28;20080;-73
2023/05/17 10:00:10;;;;;;;8.30;2.10;;;;;;;13.97;92.07;102291.59;5017898;28;20393;-74
2023/05/17 10:02:39;;;;;;;11.85;2.50;;;;;;;13.87;94.32;102300.84;5016117;28;20049;-76
2023/05/17 10:05:10;;;;;;;10.80;2.70;;;;;;;13.90;97.20;102288.81;5018636;28;20049;-74
2023/05/17 10:07:37;;;;;;;17.02;2.88;;;;;;;14.02;100.00;102297.59;5019922;28;20056;-74
2023/05/17 10:10:05;;;;;;;13.98;2.75;;;;;;;14.05;97.84;102293.97;5027398;28;20127;-75
2023/05/17 10:12:37;;;;;;;11.50;2.38;;;;;;;14.08;96.63;102295.19;5024212;28;20184;-74
2023/05/17 10:15:04;;;;;;;11.90;2.92;;;;;;;14.15;93.28;102281.19;5023123;28;20583;-76
2023/05/17 10:17:31;;;;;;;15.23;3.15;;;;;;;14.14;94.75;102279.56;5029666;28;20053;-75
2023/05/17 10:19:58;;;;;;;18.75;4.03;;;;;;;14.09;93.51;102291.19;5026667;28;20041;-74
2023/05/17 10:22:26;;;;;;;12.80;3.28;;;;;;;14.01;93.74;102292.41;5023339;28;20457;-73
2023/05/17 10:24:54;;;;;;;17.70;3.65;;;;;;;13.88;91.76;102280.84;5025152;28;20077;-75
2023/05/17 10:27:22;;;;;;;14.25;4.60;;;;;;;13.85;94.14;102286.44;5023795;28;20057;-75
2023/05/17 10:29:52;;;;;;;14.23;4.80;;;;;;;13.96;94.33;102284.44;5027220;28;20514;-75
2023/05/17 10:32:21;;;;;;;11.25;4.85;;;;;;;14.16;96.27;102279.97;5017262;28;20091;-75
2023/05/17 10:34:49;;;;;;;11.77;5.47;;;;;;;14.21;88.47;102277.56;5018962;28;20486;-74
2023/05/17 10:37:32;;;;;;;13.70;3.80;;;;;;;14.29;83.38;102262.34;5021908;28;20464;-74
2023/05/17 10:39:59;;;;;;;12.45;3.22;;;;;;;14.48;87.38;102266.66;5022541;28;20099;-75
2023/05/17 10:42:26;;;;;;;12.73;3.10;;;;;;;14.72;86.40;102266.53;5025653;28;20076;-74
2023/05/17 10:44:53;;;;;;;11.05;2.15;;;;;;;14.81;87.83;102286.50;5023154;28;20068;-75
2023/05/17 10:47:21;;;;;;;8.65;3.08;;;;;;;14.96;83.29;102276.78;5025870;28;20774;-75
2023/05/17 10:49:50;;;;;;;6.30;2.00;;;;;;;14.91;78.86;102282.81;5026737;28;20392;-74
2023/05/17 10:52:20;;;;;;;7.60;2.55;;;;;;;15.16;82.15;102279.84;5025895;28;20828;-74
2023/05/17 10:54:48;;;;;;;9.90;2.20;;;;;;;15.25;75.22;102276.59;5024536;28;20042;-73
2023/05/17 10:57:21;;;;;;;9.07;2.03;;;;;;;15.32;77.34;102266.09;5023025;28;20049;-73
2023/05/17 10:59:59;;;;;;;8.85;3.83;;;;;;;15.49;80.89;102267.97;5025266;28;20056;-72
2023/05/17 11:02:27;;;;;;;9.38;3.10;;;;;;;15.75;83.34;102270.13;5017349;28;20065;-72
2023/05/17 11:04:59;;;;;;;6.88;2.05;;;;;;;15.88;74.03;102262.78;5022468;28;20045;-72
2023/05/17 11:07:32;;;;;;;8.95;2.70;;;;;;;16.08;79.96;102260.97;5023792;28;20578;-75
2023/05/17 11:09:59;;;;;;;11.57;2.28;;;;;;;16.05;76.67;102256.19;5025910;28;20045;-73
2023/05/17 11:12:35;;;;;;;8.23;2.22;;;;;;;15.83;71.08;102256.84;5024694;28;20060;-79
2023/05/17 11:15:10;;;;;;;11.27;2.83;;;;;;;15.63;74.41;102248.22;5020077;28;20104;-76
2023/05/17 11:17:43;;;;;;;8.68;2.42;;;;;;;15.43;73.54;102249.25;5027086;28;20208;-77
2023/05/17 11:20:30;;;;;;;11.57;2.30;;;;;;;15.44;79.40;102248.81;5025954;28;20471;-74
2023/05/17 11:23:01;;;;;;;8.07;2.13;;;;;;;15.65;72.30;102250.59;5019209;28;20524;-73